Time;durP1;ratioP1;P1;durP2;ratioP2;P2;SDS_P1;SDS_P2;PMS_P1;PMS_P2;Temp;Humidity;BMP_temperature;BMP_pressure;BME280_temperature;BME280_humidity;BME280_pressure;Samples;Min_cycle;Max_cycle;Signal;HPM_P1;HPM_P2
2020/12/06 00:01:48;;;;;;;;;;;2.90;99.90;;;;;;5042531;28;19918;-83
2020/12/06 00:04:19;;;;;;;;;;;3.00;99.90;;;;;;5027301;28;19913;-82
2020/12/06 00:06:45;;;;;;;;;;;3.00;99.90;;;;;;5024624;28;19917;-84
2020/12/06 00:09:10;;;;;;;;;;;3.00;99.90;;;;;;5047368;28;19959;-83
2020/12/06 00:11:36;;;;;;;;;;;3.00;99.90;;;;;;5041472;28;19920;-82
2020/12/06 00:14:02;;;;;;;;;;;2.90;99.90;;;;;;5029357;28;19913;-83
2020/12/06 00:16:28;;;;;;;;;;;2.90;99.90;;;;;;5058105;28;19913;-82
2020/12/06 00:18:53;;;;;;;;;;;2.90;99.90;;;;;;5042830;28;19950;-82
2020/12/06 00:21:19;;;;;;;;;;;2.90;99.90;;;;;;5048872;28;19928;-81
2020/12/06 00:23:45;;;;;;;;;;;2.90;99.90;;;;;;5022460;28;19913;-81
2020/12/06 00:26:11;;;;;;;;;;;3.00;99.90;;;;;;5039725;28;19913;-81
2020/12/06 00:28:37;;;;;;;;;;;3.00;99.90;;;;;;5023416;28;19945;-81
2020/12/06 00:31:02;;;;;;;;;;;3.10;99.90;;;;;;5032517;28;19944;-82
2020/12/06 00:33:28;;;;;;;;;;;3.10;99.90;;;;;;5035827;28;19969;-82
2020/12/06 00:35:54;;;;;;;;;;;3.10;99.90;;;;;;5025365;28;20278;-81
2020/12/06 00:38:19;;;;;;;;;;;3.00;99.90;;;;;;5043124;28;19913;-81
2020/12/06 00:40:45;;;;;;;;;;;3.00;99.90;;;;;;5026874;28;20383;-80
2020/12/06 00:43:10;;;;;;;;;;;3.00;99.90;;;;;;5034695;28;20290;-83
2020/12/06 00:45:36;;;;;;;;;;;2.90;99.90;;;;;;5046216;28;19955;-82
2020/12/06 00:48:01;;;;;;;;;;;3.00;99.90;;;;;;5053474;28;19914;-82
2020/12/06 00:50:26;;;;;;;;;;;2.90;99.90;;;;;;5041668;28;19920;-81
2020/12/06 00:52:52;;;;;;;;;;;2.90;99.90;;;;;;5035608;28;19922;-82
2020/12/06 00:57:57;;;;;;;;;;;2.90;99.90;;;;;;5077244;28;20449;-84
2020/12/06 01:00:22;;;;;;;;;;;2.90;99.90;;;;;;5063955;28;19923;-84
2020/12/06 01:02:48;;;;;;;;;;;3.00;99.90;;;;;;5065253;28;19909;-84
2020/12/06 01:05:13;;;;;;;;;;;2.90;99.90;;;;;;5064946;28;19917;-84
2020/12/06 01:07:39;;;;;;;;;;;2.90;99.90;;;;;;5064664;28;19952;-83
2020/12/06 01:10:06;;;;;;;;;;;2.90;99.90;;;;;;5065190;28;19913;-83
2020/12/06 01:12:31;;;;;;;;;;;2.90;99.90;;;;;;5064387;28;19992;-83
2020/12/06 01:14:57;;;;;;;;;;;2.80;99.90;;;;;;5066752;28;19917;-84
2020/12/06 01:17:22;;;;;;;;;;;2.80;99.90;;;;;;5063467;28;19936;-83
2020/12/06 01:19:48;;;;;;;;;;;2.70;99.90;;;;;;5066367;28;19972;-84
2020/12/06 01:22:13;;;;;;;;;;;2.70;99.90;;;;;;5063818;28;19956;-84
2020/12/06 01:24:39;;;;;;;;;;;2.70;99.90;;;;;;5060754;28;19913;-84
2020/12/06 01:27:04;;;;;;;;;;;2.70;99.90;;;;;;5060996;28;19913;-84
2020/12/06 01:29:29;;;;;;;;;;;2.70;99.90;;;;;;5062641;28;19913;-84
2020/12/06 01:31:55;;;;;;;;;;;2.70;99.90;;;;;;5061167;28;19913;-84
2020/12/06 01:34:20;;;;;;;;;;;2.70;99.90;;;;;;5059289;28;19913;-84
2020/12/06 01:36:49;;;;;;;;;;;2.70;99.90;;;;;;5060271;28;20406;-84
2020/12/06 01:39:14;;;;;;;;;;;2.70;99.90;;;;;;5059231;28;20043;-83
2020/12/06 01:41:40;;;;;;;;;;;2.70;99.90;;;;;;5059993;28;20396;-83
2020/12/06 01:44:05;;;;;;;;;;;2.80;99.90;;;;;;5058134;28;19976;-83
2020/12/06 01:46:31;;;;;;;;;;;2.70;99.90;;;;;;5059791;28;20083;-84
2020/12/06 01:48:57;;;;;;;;;;;2.80;99.90;;;;;;5058646;28;19924;-84
2020/12/06 01:51:22;;;;;;;;;;;2.80;99.90;;;;;;5060463;28;19919;-84
2020/12/06 01:53:49;;;;;;;;;;;2.80;99.90;;;;;;5060979;28;19909;-84
2020/12/06 02:26:13;;;;;;;;;;;2.80;99.90;;;;;;4949905;29;19933;-78
2020/12/06 02:32:10;;;;;;;;;;;2.70;99.90;;;;;;4897583;29;20018;-78
2020/12/06 02:38:18;;;;;;;;;;;;;;;;;;;;;
2020/12/06 02:41:17;;;;;;;;;;;2.50;99.90;;;;;;5060057;28;19912;-78
2020/12/06 02:50:30;;;;;;;;;;;;;;;;;;;;;
2020/12/06 03:05:33;;;;;;;;;;;2.30;99.90;;;;;;5035316;28;19920;-79
2020/12/06 03:11:27;;;;;;;;;;;;;;;;;;;;;
2020/12/06 03:17:53;;;;;;;;;;;2.40;99.90;;;;;;4978146;28;19922;-79
2020/12/06 03:21:04;;;;;;;;;;;;;;;;;;;;;
2020/12/06 03:30:04;;;;;;;;;;;;;;;;;;;;;
2020/12/06 03:39:16;;;;;;;;;;;2.40;99.90;;;;;;5015289;28;19921;-78
2020/12/06 03:45:32;;;;;;;;;;;2.40;99.90;;;;;;4964888;28;20417;-79
2020/12/06 03:48:44;;;;;;;;;;;;;;;;;;;;;
2020/12/06 03:51:37;;;;;;;;;;;;;;;;;;;;;
2020/12/06 03:54:25;;;;;;;;;;;2.50;99.90;;;;;;5000151;28;19917;-80
2020/12/06 03:57:21;;;;;;;;;;;2.40;99.90;;;;;;4959411;28;19950;-78
2020/12/06 04:03:35;;;;;;;;;;;;;;;;;;;;;
2020/12/06 04:06:21;;;;;;;;;;;2.50;99.90;;;;;;5015771;28;19910;-78
2020/12/06 04:09:29;;;;;;;;;;;;;;;;;;;;;
2020/12/06 04:12:16;;;;;;;;;;;2.50;99.90;;;;;;4996720;28;19909;-79
2020/12/06 04:18:02;;;;;;;;;;;;;;;;;;;;;
2020/12/06 04:20:53;;;;;;;;;;;;;;;;;;;;;
2020/12/06 04:33:23;;;;;;;;;;;2.60;99.90;;;;;;4950663;29;19921;-78
2020/12/06 05:07:43;;;;;;;;;;;2.40;99.90;;;;;;4970908;28;19977;-78
2020/12/06 05:10:38;;;;;;;;;;;;;;;;;;;;;
2020/12/06 05:20:18;;;;;;;;;;;2.50;99.90;;;;;;4916835;29;19915;-80
2020/12/06 05:23:02;;;;;;;;;;;;;;;;;;;;;
2020/12/06 05:26:25;;;;;;;;;;;;;;;;;;;;;
2020/12/06 05:32:47;;;;;;;;;;;2.60;99.90;;;;;;4993392;28;19996;-80
2020/12/06 05:51:45;;;;;;;;;;;;;;;;;;;;;
2020/12/06 05:57:44;;;;;;;;;;;3.10;99.90;;;;;;4871641;29;20321;-80
2020/12/06 06:03:55;;;;;;;;;;;;;;;;;;;;;
2020/12/06 06:06:46;;;;;;;;;;;2.90;99.90;;;;;;4919710;28;19922;-80
2020/12/06 06:22:02;;;;;;;;;;;2.80;99.90;;;;;;5008568;28;19916;-79
2020/12/06 06:25:01;;;;;;;;;;;2.80;99.90;;;;;;4998977;28;19948;-79
2020/12/06 06:28:21;;;;;;;;;;;;;;;;;;;;;
2020/12/06 06:31:22;;;;;;;;;;;2.70;99.90;;;;;;4916887;29;19919;-78
2020/12/06 06:49:44;;;;;;;;;;;;;;;;;;;;;
2020/12/06 06:52:58;;;;;;;;;;;3.00;99.90;;;;;;4997538;28;19930;-79
2020/12/06 06:58:41;;;;;;;;;;;3.20;99.90;;;;;;4970717;28;19925;-81
2020/12/06 07:01:33;;;;;;;;;;;3.20;99.90;;;;;;5015117;28;20460;-79
2020/12/06 07:03:58;;;;;;;;;;;3.30;99.90;;;;;;5011740;28;19972;-81
2020/12/06 07:06:43;;;;;;;;;;;3.40;99.90;;;;;;4980900;28;19910;-81
2020/12/06 07:09:09;;;;;;;;;;;3.50;99.90;;;;;;4997473;28;19916;-81
2020/12/06 07:11:36;;;;;;;;;;;3.50;99.90;;;;;;4998283;28;19917;-81
2020/12/06 07:14:01;;;;;;;;;;;3.60;99.90;;;;;;5006235;28;19977;-80
2020/12/06 07:16:27;;;;;;;;;;;3.60;99.90;;;;;;5017933;28;20380;-80
2020/12/06 07:18:52;;;;;;;;;;;3.60;99.90;;;;;;5014193;28;19916;-81
2020/12/06 07:21:18;;;;;;;;;;;3.60;99.90;;;;;;5001696;28;19921;-81
2020/12/06 07:23:43;;;;;;;;;;;3.60;99.90;;;;;;5012024;28;19914;-81
2020/12/06 07:26:09;;;;;;;;;;;3.70;99.90;;;;;;4998633;28;20372;-83
2020/12/06 07:28:35;;;;;;;;;;;3.70;99.90;;;;;;4972793;28;19914;-81
2020/12/06 07:31:00;;;;;;;;;;;3.70;99.90;;;;;;5005631;28;20416;-81
2020/12/06 07:33:26;;;;;;;;;;;3.70;99.90;;;;;;5008316;28;19914;-80
2020/12/06 07:35:51;;;;;;;;;;;3.80;99.90;;;;;;5003899;28;19933;-82
2020/12/06 07:38:16;;;;;;;;;;;3.80;99.90;;;;;;5010148;28;19929;-81
2020/12/06 07:40:42;;;;;;;;;;;3.80;99.90;;;;;;4983758;28;19916;-81
2020/12/06 07:43:14;;;;;;;;;;;3.90;99.90;;;;;;4994024;28;20000;-83
2020/12/06 07:45:40;;;;;;;;;;;3.90;99.90;;;;;;4979133;28;19921;-82
2020/12/06 07:48:06;;;;;;;;;;;3.90;99.90;;;;;;4990240;28;20285;-81
2020/12/06 07:50:31;;;;;;;;;;;3.90;99.90;;;;;;4979686;28;19914;-82
2020/12/06 07:53:03;;;;;;;;;;;3.90;99.90;;;;;;4980662;28;19910;-79
2020/12/06 07:55:29;;;;;;;;;;;4.00;99.90;;;;;;4988708;28;19921;-82
2020/12/06 07:58:05;;;;;;;;;;;4.00;99.90;;;;;;4981373;28;19918;-81
2020/12/06 08:00:37;;;;;;;;;;;4.10;99.90;;;;;;4982065;28;19976;-82
2020/12/06 08:03:07;;;;;;;;;;;4.10;99.90;;;;;;4993435;28;20404;-83
2020/12/06 08:06:03;;;;;;;;;;;4.10;99.90;;;;;;4987101;28;19913;-81
2020/12/06 08:08:39;;;;;;;;;;;4.20;99.90;;;;;;4981714;28;19949;-83
2020/12/06 08:11:06;;;;;;;;;;;4.20;99.90;;;;;;4989357;28;19918;-81
2020/12/06 08:13:32;;;;;;;;;;;4.20;99.90;;;;;;4980624;28;19942;-81
2020/12/06 08:16:07;;;;;;;;;;;4.30;99.90;;;;;;4980465;28;20345;-79
2020/12/06 09:35:57;;;;;;;;;;;;;;;;;;;;;
2020/12/06 10:37:24;;;;;;;;;;;9.20;99.90;;;;;;5016103;28;19919;-80
2020/12/06 10:49:03;;;;;;;;;;;8.80;99.90;;;;;;5039796;28;20495;-80
2020/12/06 10:51:29;;;;;;;;;;;8.60;99.90;;;;;;5019165;28;20411;-81
2020/12/06 10:54:10;;;;;;;;;;;8.50;99.90;;;;;;5032957;28;19956;-79
2020/12/06 10:59:37;;;;;;;;;;;8.20;99.90;;;;;;5008954;28;19910;-80
2020/12/06 11:02:33;;;;;;;;;;;8.10;99.90;;;;;;5018772;28;19914;-79
2020/12/06 11:05:22;;;;;;;;;;;8.10;99.90;;;;;;5021223;28;20316;-81
2020/12/06 11:07:55;;;;;;;;;;;8.00;99.90;;;;;;5019014;28;19917;-79
2020/12/06 11:10:42;;;;;;;;;;;7.90;99.90;;;;;;5034882;28;20429;-78
2020/12/06 11:13:11;;;;;;;;;;;7.80;99.90;;;;;;5018197;28;19913;-78
2020/12/06 11:15:39;;;;;;;;;;;7.80;99.90;;;;;;5018745;28;19913;-79
2020/12/06 11:18:20;;;;;;;;;;;7.80;99.90;;;;;;5020806;28;19917;-79
2020/12/06 11:20:48;;;;;;;;;;;7.90;99.90;;;;;;5018242;28;19909;-80
2020/12/06 11:23:19;;;;;;;;;;;8.00;99.90;;;;;;5017982;28;19921;-80
2020/12/06 11:25:56;;;;;;;;;;;8.10;99.90;;;;;;5021041;28;19913;-81
2020/12/06 11:28:45;;;;;;;;;;;8.20;99.90;;;;;;5021860;28;19917;-80
2020/12/06 11:31:14;;;;;;;;;;;8.20;99.90;;;;;;5017993;28;20289;-79
2020/12/06 11:33:49;;;;;;;;;;;8.30;99.90;;;;;;5018200;28;20337;-79
2020/12/06 11:36:31;;;;;;;;;;;8.30;99.90;;;;;;5014941;28;19913;-80
2020/12/06 11:39:00;;;;;;;;;;;8.40;99.90;;;;;;5041068;28;19916;-81
2020/12/06 11:41:26;;;;;;;;;;;8.40;99.90;;;;;;5018890;28;19920;-81
2020/12/06 11:43:54;;;;;;;;;;;8.30;99.90;;;;;;5028156;28;19963;-81
2020/12/06 11:46:47;;;;;;;;;;;8.30;99.90;;;;;;5023757;28;19971;-81
2020/12/06 11:49:18;;;;;;;;;;;8.30;99.90;;;;;;5025192;28;19916;-80
2020/12/06 11:51:53;;;;;;;;;;;8.20;99.90;;;;;;5051118;28;19948;-80
2020/12/06 11:54:24;;;;;;;;;;;8.10;99.90;;;;;;5022126;28;19909;-79
2020/12/06 11:56:59;;;;;;;;;;;8.00;99.90;;;;;;5035754;28;19920;-79
2020/12/06 11:59:34;;;;;;;;;;;7.80;99.90;;;;;;5022383;28;19909;-79
2020/12/06 12:02:10;;;;;;;;;;;7.60;99.90;;;;;;5023036;28;19921;-78
2020/12/06 12:04:46;;;;;;;;;;;7.50;99.90;;;;;;5041800;28;19931;-78
2020/12/06 12:07:22;;;;;;;;;;;7.40;99.90;;;;;;5023642;28;20028;-77
2020/12/06 12:09:47;;;;;;;;;;;7.40;99.90;;;;;;5022526;28;19909;-79
2020/12/06 12:12:18;;;;;;;;;;;7.40;99.90;;;;;;5022579;28;19967;-83
2020/12/06 12:14:46;;;;;;;;;;;7.30;99.90;;;;;;5022528;28;19909;-79
2020/12/06 12:17:17;;;;;;;;;;;7.30;99.90;;;;;;5030910;28;19914;-79
2020/12/06 12:20:05;;;;;;;;;;;7.20;99.90;;;;;;5037775;28;19909;-79
2020/12/06 12:28:46;;;;;;;;;;;7.20;99.90;;;;;;5022090;28;19917;-80
2020/12/06 12:31:50;;;;;;;;;;;7.30;99.90;;;;;;5025933;28;19914;-79
2020/12/06 12:34:18;;;;;;;;;;;7.30;99.90;;;;;;5009419;28;19964;-79
2020/12/06 12:36:55;;;;;;;;;;;7.30;99.90;;;;;;5028094;28;19920;-78
2020/12/06 12:39:52;;;;;;;;;;;;;;;;;;;;;
2020/12/06 12:49:46;;;;;;;;;;;;;;;;;;;;;
2020/12/06 13:23:53;;;;;;;;;;;6.90;99.90;;;;;;2666973;23;19933;-81
2020/12/06 13:33:19;;;;;;;;;;;;;;;;;;;;;
2020/12/06 13:45:26;;;;;;;;;;;6.80;99.90;;;;;;4972553;28;20414;-80
2020/12/06 13:51:22;;;;;;;;;;;6.60;99.90;;;;;;4973705;28;19914;-79
2020/12/06 13:54:25;;;;;;;;;;;6.60;99.90;;;;;;5013247;28;19914;-80
2020/12/06 14:12:00;;;;;;;;;;;;;;;;;;;;;
2020/12/06 14:21:51;;;;;;;;;;;6.50;99.90;;;;;;4949500;29;19922;-79
2020/12/06 14:34:34;;;;;;;;;;;;;;;;;;;;;
2020/12/06 14:57:48;;;;;;;;;;;6.10;99.90;;;;;;3360976;26;19932;-81
2020/12/06 15:03:42;;;;;;;;;;;6.10;99.90;;;;;;5006932;28;19936;-82
2020/12/06 15:06:30;;;;;;;;;;;6.10;99.90;;;;;;5037947;28;20519;-79
2020/12/06 15:09:17;;;;;;;;;;;;;;;;;;;;;
2020/12/06 15:12:17;;;;;;;;;;;;;;;;;;;;;
2020/12/06 15:18:18;;;;;;;;;;;;;;;;;;;;;
2020/12/06 15:21:01;;;;;;;;;;;6.10;99.90;;;;;;5006536;28;20019;-79
2020/12/06 15:23:43;;;;;;;;;;;6.00;99.90;;;;;;5039020;28;19919;-81
2020/12/06 15:31:24;;;;;;;;;;;5.90;99.90;;;;;;4302456;26;19925;-80
2020/12/06 15:34:02;;;;;;;;;;;5.90;99.90;;;;;;5041947;28;20507;-82
2020/12/06 15:36:37;;;;;;;;;;;6.00;99.90;;;;;;5040704;28;19916;-81
2020/12/06 15:39:04;;;;;;;;;;;6.00;99.90;;;;;;5022271;28;19917;-79
2020/12/06 15:41:39;;;;;;;;;;;6.00;99.90;;;;;;5028776;28;19913;-81
2020/12/06 15:44:19;;;;;;;;;;;6.10;99.90;;;;;;5022198;28;19925;-81
2020/12/06 15:46:45;;;;;;;;;;;6.10;99.90;;;;;;5031969;28;20293;-82
2020/12/06 15:49:12;;;;;;;;;;;6.00;99.90;;;;;;5047702;28;19913;-81
2020/12/06 15:51:56;;;;;;;;;;;6.10;99.90;;;;;;5039820;28;19917;-82
2020/12/06 15:54:21;;;;;;;;;;;6.10;99.90;;;;;;5023885;28;19913;-83
2020/12/06 15:57:04;;;;;;;;;;;;;;;;;;;;;
2020/12/06 15:59:32;;;;;;;;;;;6.10;99.90;;;;;;5034681;28;19932;-82
2020/12/06 17:07:38;;;;;;;;;;;5.90;99.90;;;;;;4910385;28;19958;-79
2020/12/06 17:10:39;;;;;;;;;;;5.90;99.90;;;;;;4940108;28;19918;-78
2020/12/06 17:13:23;;;;;;;;;;;5.90;99.90;;;;;;4953999;28;19911;-78
2020/12/06 17:16:19;;;;;;;;;;;;;;;;;;;;;
2020/12/06 17:18:55;;;;;;;;;;;5.90;99.90;;;;;;5012774;28;19913;-78
2020/12/06 17:24:44;;;;;;;;;;;5.80;99.90;;;;;;5018234;28;19979;-79
2020/12/06 17:27:28;;;;;;;;;;;5.80;99.90;;;;;;5028447;28;19925;-78
2020/12/06 17:30:15;;;;;;;;;;;5.80;99.90;;;;;;5014342;28;20386;-78
2020/12/06 17:32:57;;;;;;;;;;;5.80;99.90;;;;;;5013422;28;19948;-79
2020/12/06 17:39:12;;;;;;;;;;;5.80;99.90;;;;;;5013811;28;19921;-79
2020/12/06 17:41:48;;;;;;;;;;;5.80;99.90;;;;;;5017233;28;19972;-79
2020/12/06 17:44:14;;;;;;;;;;;5.90;99.90;;;;;;5025054;28;19914;-79
2020/12/06 17:46:49;;;;;;;;;;;;;;;;;;;;;
2020/12/06 17:52:51;;;;;;;;;;;;;;;;;;;;;
2020/12/06 18:18:11;;;;;;;;;;;6.10;99.90;;;;;;4907852;29;19916;-78
2020/12/06 18:33:29;;;;;;;;;;;5.90;99.90;;;;;;4912681;29;20422;-78
2020/12/06 18:36:38;;;;;;;;;;;;;;;;;;;;;
2020/12/06 18:39:04;;;;;;;;;;;5.80;99.90;;;;;;4898695;29;19919;-77
2020/12/06 18:41:40;;;;;;;;;;;5.80;99.90;;;;;;4897369;29;19983;-78
2020/12/06 18:44:08;;;;;;;;;;;5.80;99.90;;;;;;4897958;29;19939;-78
2020/12/06 19:02:36;;;;;;;;;;;5.60;99.90;;;;;;2386984;26;19931;-78
2020/12/06 19:08:25;;;;;;;;;;;5.50;99.90;;;;;;4967677;28;19949;-79
2020/12/06 19:11:27;;;;;;;;;;;5.40;99.90;;;;;;5028741;28;19909;-79
2020/12/06 19:14:08;;;;;;;;;;;5.40;99.90;;;;;;5014804;28;19921;-78
2020/12/06 19:16:36;;;;;;;;;;;5.40;99.90;;;;;;5012314;28;19921;-79
2020/12/06 19:19:04;;;;;;;;;;;5.40;99.90;;;;;;5014827;28;19910;-78
2020/12/06 19:21:29;;;;;;;;;;;5.40;99.90;;;;;;5002081;28;19913;-79
2020/12/06 19:24:33;;;;;;;;;;;;;;;;;;;;;
2020/12/06 19:27:01;;;;;;;;;;;5.30;99.90;;;;;;5013960;28;20310;-78
2020/12/06 19:29:27;;;;;;;;;;;5.30;99.90;;;;;;4997572;28;20281;-78
2020/12/06 19:31:55;;;;;;;;;;;5.30;99.90;;;;;;5012233;28;19914;-78
2020/12/06 19:34:23;;;;;;;;;;;5.30;99.90;;;;;;5013483;28;19909;-78
2020/12/06 19:36:48;;;;;;;;;;;5.30;99.90;;;;;;5016137;28;19917;-79
2020/12/06 19:39:14;;;;;;;;;;;5.30;99.90;;;;;;5016157;28;19939;-79
2020/12/06 19:41:41;;;;;;;;;;;5.30;99.90;;;;;;5017374;28;20008;-79
2020/12/06 19:44:06;;;;;;;;;;;5.30;99.90;;;;;;5003500;28;19910;-78
2020/12/06 19:46:32;;;;;;;;;;;5.30;99.90;;;;;;4990877;28;20393;-79
2020/12/06 19:48:58;;;;;;;;;;;5.30;99.90;;;;;;4999545;28;20370;-79
2020/12/06 19:51:25;;;;;;;;;;;5.30;99.90;;;;;;4999807;28;19917;-79
2020/12/06 19:53:51;;;;;;;;;;;5.30;99.90;;;;;;5007224;28;20370;-79
2020/12/06 19:56:17;;;;;;;;;;;5.30;99.90;;;;;;5012860;28;20011;-79
2020/12/06 19:58:42;;;;;;;;;;;5.30;99.90;;;;;;5017375;28;19947;-79
2020/12/06 20:01:11;;;;;;;;;;;5.30;99.90;;;;;;5000245;28;20326;-79
2020/12/06 20:03:36;;;;;;;;;;;5.20;99.90;;;;;;5009708;28;19918;-79
2020/12/06 20:06:02;;;;;;;;;;;5.20;99.90;;;;;;5019400;28;19952;-79
2020/12/06 20:08:28;;;;;;;;;;;5.20;99.90;;;;;;5013859;28;19932;-81
2020/12/06 20:10:53;;;;;;;;;;;5.20;99.90;;;;;;5000211;28;20389;-80
2020/12/06 20:13:19;;;;;;;;;;;5.20;99.90;;;;;;5017526;28;19913;-81
2020/12/06 20:15:44;;;;;;;;;;;5.10;99.90;;;;;;5009486;28;20436;-78
2020/12/06 20:18:10;;;;;;;;;;;5.10;99.90;;;;;;5026166;28;19924;-78
2020/12/06 20:20:35;;;;;;;;;;;5.10;99.90;;;;;;5024815;28;19914;-78
2020/12/06 20:23:01;;;;;;;;;;;5.10;99.90;;;;;;4986535;28;19913;-79
2020/12/06 20:25:26;;;;;;;;;;;5.10;99.90;;;;;;5001748;28;19914;-80
2020/12/06 20:27:54;;;;;;;;;;;5.10;99.90;;;;;;5010560;28;19953;-79
2020/12/06 20:30:20;;;;;;;;;;;5.10;99.90;;;;;;5015582;28;19918;-81
2020/12/06 20:32:45;;;;;;;;;;;5.10;99.90;;;;;;5017650;28;19997;-79
2020/12/06 20:35:13;;;;;;;;;;;5.10;99.90;;;;;;5014832;28;19913;-79
2020/12/06 20:37:42;;;;;;;;;;;5.10;99.90;;;;;;5016590;28;19913;-80
2020/12/06 20:40:07;;;;;;;;;;;5.10;99.90;;;;;;5015659;28;20404;-79
2020/12/06 20:42:33;;;;;;;;;;;5.10;99.90;;;;;;5016687;28;19917;-80
2020/12/06 20:44:58;;;;;;;;;;;5.10;99.90;;;;;;5008508;28;20409;-79
2020/12/06 20:47:24;;;;;;;;;;;5.10;99.90;;;;;;5019327;28;19918;-79
2020/12/06 20:49:49;;;;;;;;;;;5.10;99.90;;;;;;4997091;28;20384;-79
2020/12/06 20:52:16;;;;;;;;;;;5.10;99.90;;;;;;5011260;28;19921;-79
2020/12/06 20:54:41;;;;;;;;;;;5.10;99.90;;;;;;5015067;28;19914;-77
2020/12/06 20:57:07;;;;;;;;;;;5.10;99.90;;;;;;5011922;28;19967;-79
2020/12/06 20:59:32;;;;;;;;;;;5.10;99.90;;;;;;5009360;28;19953;-80
2020/12/06 21:01:58;;;;;;;;;;;5.10;99.90;;;;;;5014817;28;19910;-78
2020/12/06 21:04:23;;;;;;;;;;;5.10;99.90;;;;;;5015233;28;19924;-78
2020/12/06 21:06:49;;;;;;;;;;;5.10;99.90;;;;;;5015322;28;19921;-78
2020/12/06 21:09:14;;;;;;;;;;;5.10;99.90;;;;;;5004586;28;19955;-79
2020/12/06 21:11:40;;;;;;;;;;;5.10;99.90;;;;;;5016371;28;20392;-78
2020/12/06 21:14:05;;;;;;;;;;;5.10;99.90;;;;;;5001288;28;20416;-79
2020/12/06 21:16:31;;;;;;;;;;;5.10;99.90;;;;;;5015966;28;19913;-78
2020/12/06 21:18:57;;;;;;;;;;;5.20;99.90;;;;;;5018760;28;19920;-77
2020/12/06 21:21:23;;;;;;;;;;;5.20;99.90;;;;;;5010914;28;19921;-79
2020/12/06 21:23:48;;;;;;;;;;;5.10;99.90;;;;;;5000265;28;19910;-78
2020/12/06 21:26:15;;;;;;;;;;;5.10;99.90;;;;;;5010788;28;19914;-79
2020/12/06 21:28:40;;;;;;;;;;;5.10;99.90;;;;;;4993877;28;19918;-79
2020/12/06 21:31:07;;;;;;;;;;;5.00;99.90;;;;;;5020206;28;20324;-78
2020/12/06 21:33:32;;;;;;;;;;;5.00;99.90;;;;;;5012155;28;19972;-80
2020/12/06 21:35:58;;;;;;;;;;;5.00;99.90;;;;;;5019725;28;20356;-78
2020/12/06 21:38:23;;;;;;;;;;;5.00;99.90;;;;;;5013990;28;19921;-79
2020/12/06 21:40:49;;;;;;;;;;;5.00;99.90;;;;;;5017783;28;19943;-78
2020/12/06 21:43:14;;;;;;;;;;;5.00;99.90;;;;;;5014797;28;19948;-78
2020/12/06 21:45:40;;;;;;;;;;;5.00;99.90;;;;;;4997675;28;19918;-78
2020/12/06 21:48:05;;;;;;;;;;;4.90;99.90;;;;;;4997508;28;19924;-79
2020/12/06 21:50:31;;;;;;;;;;;4.80;99.90;;;;;;5013852;28;19921;-78
2020/12/06 21:52:56;;;;;;;;;;;4.70;99.90;;;;;;5016647;28;20003;-80
2020/12/06 21:55:22;;;;;;;;;;;4.70;99.90;;;;;;5011135;28;19921;-78
2020/12/06 21:57:47;;;;;;;;;;;4.60;99.90;;;;;;5018022;28;19916;-78
2020/12/06 22:00:13;;;;;;;;;;;4.60;99.90;;;;;;5005154;28;19924;-77
2020/12/06 22:02:39;;;;;;;;;;;4.60;99.90;;;;;;5006434;28;19947;-78
2020/12/06 22:05:05;;;;;;;;;;;4.70;99.90;;;;;;4992029;28;20016;-80
2020/12/06 22:07:30;;;;;;;;;;;4.70;99.90;;;;;;4982026;28;19941;-79
2020/12/06 22:09:59;;;;;;;;;;;4.70;99.90;;;;;;5014126;28;19914;-79
2020/12/06 22:12:28;;;;;;;;;;;4.70;99.90;;;;;;5014821;28;20392;-79
2020/12/06 22:14:53;;;;;;;;;;;4.70;99.90;;;;;;5011171;28;19918;-78
2020/12/06 22:17:19;;;;;;;;;;;4.70;99.90;;;;;;5017852;28;19921;-78
2020/12/06 22:19:44;;;;;;;;;;;4.70;99.90;;;;;;5016967;28;20481;-78
2020/12/06 22:22:09;;;;;;;;;;;4.70;99.90;;;;;;5017101;28;19917;-79
2020/12/06 22:24:35;;;;;;;;;;;4.80;99.90;;;;;;5004922;28;20043;-79
2020/12/06 22:27:01;;;;;;;;;;;4.80;99.90;;;;;;5018083;28;20289;-78
2020/12/06 22:29:26;;;;;;;;;;;4.80;99.90;;;;;;5003651;28;19913;-79
2020/12/06 22:31:53;;;;;;;;;;;4.80;99.90;;;;;;5018152;28;19913;-78
2020/12/06 22:34:19;;;;;;;;;;;4.80;99.90;;;;;;4995650;28;19913;-78
2020/12/06 22:36:45;;;;;;;;;;;4.80;99.90;;;;;;5000610;28;20538;-79
2020/12/06 22:39:10;;;;;;;;;;;4.80;99.90;;;;;;5017805;28;19921;-80
2020/12/06 22:41:36;;;;;;;;;;;4.80;99.90;;;;;;5002296;28;20392;-78
2020/12/06 22:44:01;;;;;;;;;;;4.80;99.90;;;;;;5019487;28;19967;-79
2020/12/06 22:46:27;;;;;;;;;;;4.80;99.90;;;;;;5002067;28;19909;-79
2020/12/06 22:48:52;;;;;;;;;;;4.80;99.90;;;;;;5000143;28;20000;-79
2020/12/06 22:51:20;;;;;;;;;;;4.80;99.90;;;;;;5013484;28;19921;-79
2020/12/06 22:53:46;;;;;;;;;;;4.90;99.90;;;;;;5019286;28;19921;-79
2020/12/06 22:56:11;;;;;;;;;;;4.90;99.90;;;;;;4997929;28;19914;-79
2020/12/06 22:58:37;;;;;;;;;;;4.90;99.90;;;;;;4996936;28;19913;-79
2020/12/06 23:01:03;;;;;;;;;;;4.90;99.90;;;;;;5018299;28;19918;-80
2020/12/06 23:03:29;;;;;;;;;;;4.90;99.90;;;;;;5019210;28;20405;-80
2020/12/06 23:05:54;;;;;;;;;;;4.90;99.90;;;;;;4998094;28;19914;-80
2020/12/06 23:08:20;;;;;;;;;;;4.90;99.90;;;;;;5016979;28;19924;-80
2020/12/06 23:10:45;;;;;;;;;;;4.90;99.90;;;;;;5011696;28;20005;-80
2020/12/06 23:13:11;;;;;;;;;;;4.90;99.90;;;;;;5015047;28;20011;-79
2020/12/06 23:15:36;;;;;;;;;;;4.90;99.90;;;;;;5011727;28;19917;-79
2020/12/06 23:18:02;;;;;;;;;;;4.90;99.90;;;;;;5012975;28;19913;-79
2020/12/06 23:20:27;;;;;;;;;;;4.90;99.90;;;;;;5018259;28;19913;-79
2020/12/06 23:22:53;;;;;;;;;;;4.90;99.90;;;;;;5001236;28;20378;-79
2020/12/06 23:25:19;;;;;;;;;;;4.90;99.90;;;;;;5017707;28;19980;-80
2020/12/06 23:27:46;;;;;;;;;;;4.90;99.90;;;;;;5018722;28;19917;-80
2020/12/06 23:30:11;;;;;;;;;;;4.90;99.90;;;;;;5017726;28;19956;-80
2020/12/06 23:32:37;;;;;;;;;;;4.90;99.90;;;;;;5012867;28;19917;-80
2020/12/06 23:35:03;;;;;;;;;;;4.80;99.90;;;;;;5018630;28;20362;-79
